Time;durP1;ratioP1;P1;durP2;ratioP2;P2;SDS_P1;SDS_P2;PMS_P1;PMS_P2;Temp;Humidity;BMP_temperature;BMP_pressure;BME280_temperature;BME280_humidity;BME280_pressure;Samples;Min_cycle;Max_cycle;Signal;HPM_P1;HPM_P2
2021/05/14 00:00:33;;;;;;;16.57;6.75;;;;;;;11.07;78.67;100247.42;1705891;84;21019;-40
2021/05/14 00:02:59;;;;;;;14.65;5.37;;;;;;;11.06;78.34;100242.30;1705894;84;20966;-40
2021/05/14 00:05:26;;;;;;;11.95;5.67;;;;;;;11.04;78.16;100251.84;1706024;84;20971;-40
2021/05/14 00:07:53;;;;;;;15.28;5.53;;;;;;;11.02;77.82;100243.27;1705908;82;21026;-40
2021/05/14 00:10:21;;;;;;;22.35;6.00;;;;;;;11.04;77.92;100245.38;1706065;84;20938;-41
2021/05/14 00:12:52;;;;;;;21.07;6.80;;;;;;;11.06;78.80;100243.59;1705928;82;21113;-41
2021/05/14 00:15:18;;;;;;;20.90;6.42;;;;;;;11.09;79.72;100243.52;1705774;84;20966;-41
2021/05/14 00:17:45;;;;;;;26.85;6.10;;;;;;;11.07;80.13;100233.17;1719167;83;20957;-41
2021/05/14 00:20:12;;;;;;;26.12;4.80;;;;;;;11.07;80.29;100234.47;1719350;83;20903;-41
2021/05/14 00:22:39;;;;;;;12.15;5.17;;;;;;;11.05;80.26;100221.17;1719539;83;20981;-40
2021/05/14 00:25:07;;;;;;;13.55;5.22;;;;;;;11.02;80.05;100225.13;1719374;83;21157;-41
2021/05/14 00:27:34;;;;;;;15.98;5.92;;;;;;;10.98;79.92;100223.05;1719350;83;21001;-41
2021/05/14 00:30:00;;;;;;;21.50;5.53;;;;;;;10.92;79.84;100216.27;1719488;83;20985;-41
2021/05/14 00:32:27;;;;;;;13.75;4.22;;;;;;;10.85;79.59;100210.83;1719497;83;21045;-41
2021/05/14 00:34:53;;;;;;;10.43;4.65;;;;;;;10.78;79.35;100210.58;1719482;83;20942;-41
2021/05/14 00:37:20;;;;;;;16.42;4.58;;;;;;;10.70;79.22;100206.87;1719365;83;21119;-41
2021/05/14 00:39:46;;;;;;;8.00;4.00;;;;;;;10.61;79.33;100198.86;1719200;83;20957;-41
2021/05/14 00:42:13;;;;;;;12.75;4.33;;;;;;;10.54;79.44;100195.14;1719362;83;21013;-41
2021/05/14 00:44:49;;;;;;;9.98;4.20;;;;;;;10.47;79.46;100184.07;1719347;83;20997;-41
2021/05/14 00:47:15;;;;;;;13.90;4.90;;;;;;;10.43;79.61;100180.72;1718174;83;21021;-41
2021/05/14 00:49:45;;;;;;;10.88;4.78;;;;;;;10.37;79.87;100183.42;1719413;83;21643;-40
2021/05/14 00:52:15;;;;;;;6.58;4.12;;;;;;;10.35;80.86;100180.85;1719339;83;20985;-40
2021/05/14 00:54:44;;;;;;;13.85;4.17;;;;;;;10.34;81.87;100187.34;1719369;83;20894;-40
2021/05/14 00:57:12;;;;;;;9.33;3.87;;;;;;;10.32;82.88;100178.77;1718552;83;20969;-40
2021/05/14 00:59:39;;;;;;;12.98;4.22;;;;;;;10.29;83.42;100183.58;1719438;82;20930;-40
2021/05/14 01:02:05;;;;;;;5.70;4.10;;;;;;;10.25;83.67;100179.36;1719432;83;21044;-40
2021/05/14 01:04:33;;;;;;;9.30;4.55;;;;;;;10.21;83.88;100175.98;1719373;83;21511;-40
2021/05/14 01:07:00;;;;;;;12.10;3.42;;;;;;;10.16;83.89;100176.52;1719511;82;21305;-40
2021/05/14 01:09:27;;;;;;;9.10;3.70;;;;;;;10.12;83.81;100175.32;1719429;83;20910;-40
2021/05/14 01:11:54;;;;;;;11.33;4.00;;;;;;;10.09;83.59;100170.22;1719340;83;20982;-40
2021/05/14 01:14:21;;;;;;;9.65;3.90;;;;;;;10.08;83.55;100169.80;1719294;82;21061;-40
2021/05/14 01:16:47;;;;;;;20.17;4.28;;;;;;;10.08;83.58;100168.52;1719312;83;20973;-40
2021/05/14 01:19:14;;;;;;;6.28;2.92;;;;;;;10.08;83.37;100169.80;1719348;83;20922;-40
2021/05/14 01:21:41;;;;;;;9.73;3.60;;;;;;;10.10;83.08;100165.45;1719291;83;20930;-40
2021/05/14 01:24:08;;;;;;;9.63;4.10;;;;;;;10.11;82.72;100162.84;1719503;83;20950;-40
2021/05/14 01:26:34;;;;;;;13.62;4.25;;;;;;;10.12;82.44;100156.78;1719255;83;21413;-40
2021/05/14 01:29:03;;;;;;;5.37;3.80;;;;;;;10.10;82.18;100144.77;1719374;83;21471;-41
2021/05/14 01:31:30;;;;;;;7.75;3.58;;;;;;;10.09;82.00;100141.77;1693497;83;20981;-41
2021/05/14 01:33:57;;;;;;;6.47;3.55;;;;;;;10.09;81.74;100141.77;1719214;83;20962;-39
2021/05/14 01:36:23;;;;;;;12.13;3.92;;;;;;;10.08;81.58;100140.90;1719249;83;20990;-39
2021/05/14 01:38:49;;;;;;;14.73;3.77;;;;;;;10.06;81.45;100144.83;1719348;83;21056;-39
2021/05/14 01:41:16;;;;;;;5.70;3.90;;;;;;;10.06;81.30;100153.88;1719405;83;21002;-39
2021/05/14 01:43:42;;;;;;;6.83;3.30;;;;;;;10.07;81.26;100145.66;1719485;83;21049;-38
2021/05/14 01:46:09;;;;;;;10.28;4.30;;;;;;;10.06;81.07;100141.38;1719316;83;20946;-39
2021/05/14 01:48:35;;;;;;;12.40;4.95;;;;;;;10.05;80.95;100146.14;1719352;83;21055;-39
2021/05/14 01:51:19;;;;;;;7.08;5.15;;;;;;;10.02;80.86;100150.95;1719368;83;21755;-38
2021/05/14 01:53:45;;;;;;;23.50;5.47;;;;;;;10.00;80.93;100147.55;1719456;83;21535;-40
2021/05/14 01:56:11;;;;;;;18.92;4.83;;;;;;;10.00;80.88;100146.26;1719401;83;21432;-39
2021/05/14 01:58:38;;;;;;;9.75;4.53;;;;;;;10.00;80.84;100147.98;1719498;83;21661;-39
2021/05/14 02:01:04;;;;;;;7.53;4.28;;;;;;;9.99;80.79;100153.61;1719346;83;21606;-40
2021/05/14 02:03:31;;;;;;;10.38;4.67;;;;;;;9.98;80.73;100151.05;1719455;83;21857;-40
2021/05/14 02:05:57;;;;;;;9.70;3.72;;;;;;;9.97;80.69;100152.76;1719359;83;21467;-40
2021/05/14 02:08:24;;;;;;;12.82;3.80;;;;;;;9.99;80.61;100154.03;1719293;82;21481;-40
2021/05/14 02:10:51;;;;;;;9.48;3.95;;;;;;;10.02;80.54;100156.13;1719292;83;21653;-40
2021/05/14 02:13:17;;;;;;;5.53;3.72;;;;;;;10.01;80.49;100154.42;1719412;83;21428;-40
2021/05/14 02:15:43;;;;;;;8.00;3.83;;;;;;;9.99;80.55;100147.14;1719381;83;21886;-40
2021/05/14 02:18:10;;;;;;;10.43;3.60;;;;;;;9.99;80.72;100149.73;1719108;83;21531;-40
2021/05/14 02:20:36;;;;;;;15.32;4.33;;;;;;;9.98;80.73;100141.56;1719382;83;21582;-40
2021/05/14 02:23:03;;;;;;;7.65;3.77;;;;;;;9.97;80.89;100139.83;1719227;82;21574;-40
2021/05/14 02:25:29;;;;;;;5.37;2.95;;;;;;;9.96;80.99;100136.84;1719384;83;21077;-40
2021/05/14 02:27:56;;;;;;;8.25;3.65;;;;;;;9.97;80.86;100129.48;1719388;83;21081;-40
2021/05/14 02:30:23;;;;;;;3.98;2.62;;;;;;;10.00;80.70;100125.58;1719184;83;22045;-40
2021/05/14 02:32:49;;;;;;;5.83;2.77;;;;;;;10.05;80.46;100126.74;1719219;83;20907;-41
2021/05/14 02:35:16;;;;;;;4.78;3.05;;;;;;;10.09;80.19;100126.25;1719330;83;21555;-41
2021/05/14 02:37:42;;;;;;;7.35;2.92;;;;;;;10.12;80.01;100123.59;1719506;83;21499;-40
2021/05/14 02:40:10;;;;;;;4.75;2.67;;;;;;;10.16;79.76;100126.52;1719313;83;21698;-41
2021/05/14 02:42:37;;;;;;;5.65;2.67;;;;;;;10.21;79.45;100124.67;1719193;83;21037;-41
2021/05/14 02:45:06;;;;;;;9.20;2.92;;;;;;;10.26;79.19;100128.03;1719347;83;21001;-41
2021/05/14 02:47:32;;;;;;;5.05;2.80;;;;;;;10.28;79.08;100123.67;1719239;83;21025;-41
2021/05/14 02:49:59;;;;;;;2.87;2.67;;;;;;;10.30;78.96;100122.33;1719217;83;20926;-41
2021/05/14 02:52:25;;;;;;;2.45;2.25;;;;;;;10.30;78.96;100115.43;1719321;83;21668;-40
2021/05/14 02:54:52;;;;;;;6.35;2.37;;;;;;;10.31;78.87;100115.84;1719286;83;21539;-41
2021/05/14 02:57:18;;;;;;;6.33;2.85;;;;;;;10.34;78.84;100113.17;1719208;83;21436;-41
2021/05/14 02:59:45;;;;;;;3.05;2.50;;;;;;;10.38;78.84;100115.27;1719197;83;20954;-41
2021/05/14 03:02:11;;;;;;;4.10;2.92;;;;;;;10.41;78.85;100107.45;1719355;83;20998;-41
2021/05/14 03:04:38;;;;;;;7.03;2.90;;;;;;;10.46;78.75;100102.16;1719539;83;21668;-41
2021/05/14 03:07:05;;;;;;;5.03;2.45;;;;;;;10.54;78.62;100108.45;1719400;82;20977;-41
2021/05/14 03:09:33;;;;;;;8.55;2.55;;;;;;;10.60;78.53;100106.57;1719514;83;20965;-40
2021/05/14 03:12:00;;;;;;;10.88;2.77;;;;;;;10.64;78.45;100100.42;1719615;83;20966;-41
2021/05/14 03:14:26;;;;;;;5.72;2.70;;;;;;;10.69;78.34;100099.03;1719420;83;20978;-41
2021/05/14 03:16:54;;;;;;;5.10;2.65;;;;;;;10.73;78.28;100101.08;1716148;83;21010;-41
2021/05/14 03:19:21;;;;;;;4.55;2.22;;;;;;;10.77;78.18;100106.61;1705875;84;21014;-41
2021/05/14 03:21:47;;;;;;;4.22;2.77;;;;;;;10.81;78.13;100100.89;1706088;84;21558;-41
2021/05/14 03:24:13;;;;;;;2.90;2.47;;;;;;;10.87;78.20;100094.29;1705957;84;21579;-40
2021/05/14 03:26:40;;;;;;;4.60;2.85;;;;;;;10.95;78.20;100083.71;1705967;84;21511;-40
2021/05/14 03:29:06;;;;;;;5.62;2.92;;;;;;;11.04;77.92;100085.62;1705922;84;21635;-41
2021/05/14 03:31:33;;;;;;;6.08;2.62;;;;;;;11.20;77.58;100082.17;1705857;84;21604;-41
2021/05/14 03:33:59;;;;;;;4.60;2.42;;;;;;;11.40;77.50;100079.95;1705935;84;20926;-41
2021/05/14 03:36:26;;;;;;;4.72;2.27;;;;;;;11.57;76.97;100076.41;1705959;84;21010;-41
2021/05/14 03:38:52;;;;;;;3.90;2.33;;;;;;;11.74;76.24;100066.84;1706050;84;20923;-40
2021/05/14 03:41:30;;;;;;;3.60;2.17;;;;;;;11.95;75.54;100074.88;1705953;84;21084;-41
2021/05/14 03:43:47;;;;;;;5.00;2.08;;;;;;;12.15;75.18;100079.52;1704362;84;20971;-39
2021/05/14 03:46:13;;;;;;;2.83;2.10;;;;;;;12.39;74.58;100082.67;1705936;84;20963;-41
2021/05/14 03:48:40;;;;;;;7.70;2.33;;;;;;;12.64;74.17;100078.38;1706032;84;20958;-39
2021/05/14 03:51:08;;;;;;;9.05;2.60;;;;;;;12.98;73.57;100074.23;1705980;82;20907;-40
2021/05/14 03:53:34;;;;;;;3.47;2.30;;;;;;;13.39;72.29;100074.97;1705875;82;21662;-40
2021/05/14 03:56:01;;;;;;;5.25;2.60;;;;;;;13.79;71.43;100074.84;1705865;84;21460;-40
2021/05/14 03:58:28;;;;;;;4.03;2.30;;;;;;;14.18;69.98;100065.55;1705862;84;20966;-40
2021/05/14 04:00:54;;;;;;;2.92;2.22;;;;;;;14.50;68.73;100062.09;1705909;84;21037;-40
2021/05/14 04:03:22;;;;;;;2.27;2.08;;;;;;;14.77;67.28;100063.19;1705798;83;21610;-40
2021/05/14 04:05:49;;;;;;;3.22;2.12;;;;;;;14.88;64.64;100054.92;1705892;84;21269;-40
2021/05/14 04:08:16;;;;;;;5.45;2.45;;;;;;;14.85;64.72;100058.95;1705667;82;21583;-42
2021/05/14 04:16:04;;;;;;;6.22;2.40;;;;;;;15.13;64.05;100054.72;1705980;82;21589;-40
2021/05/14 04:18:31;;;;;;;8.00;2.15;;;;;;;15.33;62.81;100058.21;1715902;83;21079;-40
2021/05/14 04:20:58;;;;;;;9.78;2.70;;;;;;;15.52;62.97;100053.83;1719364;83;20863;-40
2021/05/14 04:23:25;;;;;;;10.10;2.40;;;;;;;15.81;62.35;100046.89;1719398;83;21049;-40
2021/05/14 04:25:51;;;;;;;7.72;3.40;;;;;;;16.10;61.96;100046.00;1719400;83;21507;-40
2021/05/14 04:28:20;;;;;;;8.58;4.67;;;;;;;16.33;61.57;100053.18;1719276;83;20926;-40
2021/05/14 04:30:46;;;;;;;9.58;3.70;;;;;;;16.53;60.07;100050.88;1719412;83;21091;-40
2021/05/14 04:33:13;;;;;;;10.35;3.67;;;;;;;16.54;59.74;100050.44;1719267;83;20970;-40
2021/05/14 04:35:39;;;;;;;17.75;5.08;;;;;;;16.60;59.87;100056.66;1719535;83;20938;-40
2021/05/14 04:38:05;;;;;;;8.25;3.65;;;;;;;16.60;59.13;100049.67;1719414;83;21005;-41
2021/05/14 04:40:32;;;;;;;16.10;4.35;;;;;;;16.62;59.78;100054.36;1719412;83;20942;-40
2021/05/14 04:43:04;;;;;;;14.50;4.53;;;;;;;16.68;60.03;100056.28;1719389;82;21050;-41
2021/05/14 04:45:31;;;;;;;19.95;4.15;;;;;;;16.86;60.09;100058.41;1719323;83;20993;-41
2021/05/14 04:47:58;;;;;;;21.33;3.52;;;;;;;17.06;59.51;100058.74;1719426;83;20898;-40
2021/05/14 04:50:25;;;;;;;12.73;3.67;;;;;;;17.18;59.23;100062.49;1719416;82;20930;-41
2021/05/14 04:53:04;;;;;;;18.00;4.03;;;;;;;17.26;58.62;100056.83;1719508;83;20953;-40
2021/05/14 04:55:32;;;;;;;19.75;4.00;;;;;;;17.38;58.28;100047.05;1719330;83;21652;-40
2021/05/14 04:57:58;;;;;;;23.73;4.83;;;;;;;17.51;58.04;100041.52;1719334;83;20966;-40
2021/05/14 05:00:25;;;;;;;16.85;4.87;;;;;;;17.62;57.98;100043.55;1719543;83;20974;-40
2021/05/14 05:02:51;;;;;;;19.25;5.25;;;;;;;17.79;57.94;100041.31;1719376;83;20962;-40
2021/05/14 05:05:18;;;;;;;19.62;4.42;;;;;;;17.93;56.73;100038.41;1719222;82;20946;-40
2021/05/14 05:07:45;;;;;;;13.65;4.17;;;;;;;18.04;56.94;100030.81;1719423;82;21098;-40
2021/05/14 05:10:11;;;;;;;20.23;4.80;;;;;;;18.13;56.27;100024.69;1719300;82;20993;-39
2021/05/14 05:12:38;;;;;;;16.02;4.55;;;;;;;18.13;55.74;100026.00;1719250;83;20962;-40
2021/05/14 05:15:07;;;;;;;15.08;4.75;;;;;;;18.09;56.04;100018.77;1719399;83;20983;-40
2021/05/14 05:17:34;;;;;;;17.60;4.95;;;;;;;18.15;56.76;100018.89;1716169;82;20998;-40
2021/05/14 05:20:01;;;;;;;17.90;4.92;;;;;;;18.27;56.44;100018.17;1705834;82;21097;-41
2021/05/14 05:22:27;;;;;;;13.85;5.35;;;;;;;18.38;56.02;100018.41;1705759;84;20879;-40
2021/05/14 05:24:54;;;;;;;10.98;4.67;;;;;;;18.42;55.50;100024.30;1705924;84;20951;-41
2021/05/14 05:27:20;;;;;;;10.63;4.33;;;;;;;18.58;55.51;100029.52;1705874;83;20914;-41
2021/05/14 05:29:47;;;;;;;9.53;4.60;;;;;;;18.81;55.63;100025.97;1705806;84;21580;-41
2021/05/14 05:32:13;;;;;;;11.90;4.60;;;;;;;19.01;54.97;100030.52;1705903;84;21724;-41
2021/05/14 05:34:40;;;;;;;13.50;4.92;;;;;;;19.24;54.44;100026.02;1705868;84;21038;-41
2021/05/14 05:37:06;;;;;;;8.78;3.92;;;;;;;19.49;52.72;100023.67;1705862;84;20941;-40
2021/05/14 05:39:33;;;;;;;10.95;4.08;;;;;;;19.62;52.51;100014.55;1705879;84;20990;-41
2021/05/14 05:41:59;;;;;;;15.80;4.42;;;;;;;19.86;52.24;100015.23;1705839;84;20887;-41
2021/05/14 05:44:26;;;;;;;12.00;4.58;;;;;;;19.99;51.60;100012.20;1705965;83;21491;-41
2021/05/14 05:46:53;;;;;;;10.88;3.77;;;;;;;20.15;51.25;100011.21;1705838;84;21567;-41
2021/05/14 05:49:23;;;;;;;7.95;3.83;;;;;;;20.16;50.70;100011.09;1705805;84;20923;-41
2021/05/14 05:51:50;;;;;;;12.23;3.83;;;;;;;20.21;50.68;100011.66;1705963;84;20919;-41
2021/05/14 05:54:16;;;;;;;8.95;3.60;;;;;;;20.33;50.63;100018.34;1705977;84;20983;-41
2021/05/14 05:56:45;;;;;;;8.83;3.40;;;;;;;20.37;50.79;100012.79;1705747;84;21849;-41
2021/05/14 05:59:15;;;;;;;12.03;4.00;;;;;;;20.25;50.58;100014.91;1705813;84;21034;-41
2021/05/14 06:01:41;;;;;;;6.75;3.70;;;;;;;20.06;50.52;100020.53;1705731;84;20947;-41
2021/05/14 06:04:08;;;;;;;7.95;3.20;;;;;;;19.89;51.03;100016.34;1705791;84;21002;-41
2021/05/14 06:06:34;;;;;;;6.72;3.70;;;;;;;19.85;51.53;100018.32;1705803;82;21002;-41
2021/05/14 06:09:02;;;;;;;9.60;3.25;;;;;;;19.89;51.78;100011.09;1705863;84;21091;-41
2021/05/14 06:11:29;;;;;;;5.97;3.22;;;;;;;19.96;51.74;100009.78;1705711;84;20931;-41
2021/05/14 06:13:55;;;;;;;9.95;3.83;;;;;;;20.01;51.93;100018.68;1705725;84;21023;-41
2021/05/14 06:16:22;;;;;;;10.53;3.77;;;;;;;20.13;51.67;100009.16;1705699;84;21006;-41
2021/05/14 06:18:54;;;;;;;7.60;3.70;;;;;;;20.28;51.42;100010.75;1713766;83;20910;-41
2021/05/14 06:21:16;;;;;;;6.17;3.02;;;;;;;20.45;51.06;100013.56;1718515;83;21879;-41
2021/05/14 06:23:43;;;;;;;6.17;3.00;;;;;;;20.53;50.82;100011.73;1719204;83;21559;-41
2021/05/14 06:26:09;;;;;;;7.97;3.37;;;;;;;20.42;50.48;100012.95;1719317;83;21439;-41
2021/05/14 06:28:37;;;;;;;9.00;3.15;;;;;;;20.35;51.06;100014.68;1719227;83;20997;-41
2021/05/14 06:31:03;;;;;;;10.00;3.05;;;;;;;20.39;51.25;100020.55;1719414;83;20974;-41
2021/05/14 06:33:30;;;;;;;8.58;3.45;;;;;;;20.55;51.50;100015.11;1719290;83;21046;-41
2021/05/14 06:35:57;;;;;;;9.80;3.25;;;;;;;20.64;51.33;100011.88;1719365;83;20954;-41
2021/05/14 06:38:23;;;;;;;3.15;2.77;;;;;;;20.61;51.29;100016.03;1719411;83;20966;-40
2021/05/14 06:40:50;;;;;;;8.98;3.33;;;;;;;20.53;51.32;100009.11;1719503;83;20978;-40
2021/05/14 06:43:17;;;;;;;5.35;3.20;;;;;;;20.57;51.92;100010.58;1719660;83;21013;-40
2021/05/14 06:45:43;;;;;;;6.00;3.60;;;;;;;20.75;51.37;100005.03;1719566;83;21085;-40
2021/05/14 06:48:13;;;;;;;8.85;3.45;;;;;;;20.94;50.58;100005.48;1692852;83;21002;-41
2021/05/14 06:50:39;;;;;;;8.98;3.65;;;;;;;21.02;50.31;100003.64;1719274;82;21456;-41
2021/05/14 06:53:05;;;;;;;5.72;3.02;;;;;;;21.14;51.05;100007.20;1719490;83;21533;-40
2021/05/14 06:55:33;;;;;;;11.63;3.52;;;;;;;21.29;50.99;100000.02;1719503;83;21564;-40
2021/05/14 06:58:01;;;;;;;5.70;3.10;;;;;;;21.44;51.06;99995.45;1719513;83;21092;-40
2021/05/14 07:00:27;;;;;;;14.35;4.03;;;;;;;21.64;51.05;99994.03;1719452;83;21005;-41
2021/05/14 07:02:54;;;;;;;9.33;4.08;;;;;;;21.94;50.17;99987.47;1719533;82;20903;-40
2021/05/14 07:05:20;;;;;;;11.95;4.85;;;;;;;22.20;49.45;99987.82;1719435;83;20942;-41
2021/05/14 07:07:47;;;;;;;7.80;3.05;;;;;;;22.34;48.94;99986.78;1719383;82;20922;-41
2021/05/14 07:10:14;;;;;;;7.30;3.20;;;;;;;22.48;49.50;99985.77;1719454;83;21102;-42
2021/05/14 07:12:40;;;;;;;8.60;4.35;;;;;;;22.67;49.43;99987.36;1719361;82;21021;-42
2021/05/14 07:15:10;;;;;;;6.20;3.27;;;;;;;22.89;48.38;99984.84;1719587;83;21029;-41
2021/05/14 07:17:36;;;;;;;7.47;3.62;;;;;;;22.99;48.42;99987.61;1719437;83;20986;-42
2021/05/14 07:20:05;;;;;;;9.80;3.60;;;;;;;23.08;47.73;99984.23;1706200;83;21041;-42
2021/05/14 07:22:31;;;;;;;10.63;3.75;;;;;;;23.23;47.42;99981.71;1705861;84;21084;-41
2021/05/14 07:24:58;;;;;;;10.88;3.98;;;;;;;23.34;47.00;99980.89;1705996;82;21026;-42
2021/05/14 07:27:25;;;;;;;10.48;4.08;;;;;;;23.42;46.76;99980.28;1705981;83;20951;-42
2021/05/14 07:29:52;;;;;;;9.25;4.03;;;;;;;23.46;47.15;99976.42;1706014;83;21022;-42
2021/05/14 07:32:19;;;;;;;7.92;3.85;;;;;;;23.56;46.83;99974.35;1705965;84;21015;-42
2021/05/14 07:34:45;;;;;;;11.10;4.12;;;;;;;23.63;47.49;99981.66;1705906;84;21867;-42
2021/05/14 07:37:11;;;;;;;15.72;4.15;;;;;;;23.71;46.47;99981.52;1705700;84;20931;-41
2021/05/14 07:39:38;;;;;;;9.28;4.35;;;;;;;23.71;45.88;99973.12;1706010;84;20970;-41
2021/05/14 07:42:05;;;;;;;9.03;3.77;;;;;;;23.79;45.84;99980.42;1705878;84;20908;-41
2021/05/14 07:44:32;;;;;;;8.60;4.25;;;;;;;23.83;45.56;99980.52;1705974;84;20963;-41
2021/05/14 07:46:59;;;;;;;11.50;3.75;;;;;;;23.92;46.05;99982.89;1705800;84;21097;-41
2021/05/14 07:49:26;;;;;;;7.50;3.80;;;;;;;24.16;46.28;99978.72;1705827;82;20967;-41
2021/05/14 07:51:52;;;;;;;10.85;4.62;;;;;;;24.29;45.04;99977.20;1705914;84;21014;-41
2021/05/14 07:54:18;;;;;;;7.47;3.75;;;;;;;24.35;44.80;99978.00;1705869;83;21010;-41
2021/05/14 07:56:45;;;;;;;9.20;4.00;;;;;;;24.47;44.88;99976.63;1705901;84;20978;-41
2021/05/14 07:59:11;;;;;;;7.55;3.72;;;;;;;24.54;44.33;99976.45;1706012;84;21132;-41
2021/05/14 08:01:38;;;;;;;8.80;3.50;;;;;;;24.57;44.25;99974.86;1705739;82;20942;-41
2021/05/14 08:04:06;;;;;;;12.53;3.42;;;;;;;24.66;44.43;99984.67;1705916;84;21488;-41
2021/05/14 08:06:33;;;;;;;8.80;3.87;;;;;;;24.80;43.93;99980.02;1705826;82;21591;-41
2021/05/14 08:09:05;;;;;;;10.93;3.50;;;;;;;24.86;43.64;99982.62;1705862;84;20978;-41
2021/05/14 08:11:29;;;;;;;15.48;4.25;;;;;;;24.94;43.78;99978.35;1705670;83;21602;-41
2021/05/14 08:13:56;;;;;;;12.90;4.00;;;;;;;24.99;43.24;99977.93;1705843;82;21540;-41
2021/05/14 08:16:22;;;;;;;8.30;3.90;;;;;;;25.15;43.44;99981.42;1705894;82;21369;-41
2021/05/14 08:18:51;;;;;;;10.75;3.47;;;;;;;25.29;43.10;99974.91;1710290;83;21525;-41
2021/05/14 08:21:21;;;;;;;9.68;3.70;;;;;;;25.43;42.88;99976.33;1719454;83;20978;-41
2021/05/14 08:23:47;;;;;;;11.83;3.50;;;;;;;25.59;43.43;99972.33;1719407;83;21843;-41
2021/05/14 08:26:14;;;;;;;9.23;3.72;;;;;;;25.86;42.09;99979.61;1719248;83;21542;-41
2021/05/14 08:28:41;;;;;;;7.12;3.67;;;;;;;26.02;42.05;99964.93;1719441;83;21563;-41
2021/05/14 08:31:08;;;;;;;11.30;3.60;;;;;;;26.15;41.65;99973.95;1719376;83;20998;-41
2021/05/14 08:33:34;;;;;;;11.73;3.87;;;;;;;26.11;42.77;99971.55;1719253;83;20978;-41
2021/05/14 08:36:01;;;;;;;7.53;3.55;;;;;;;26.11;41.59;99974.71;1719435;83;21455;-42
2021/05/14 08:38:27;;;;;;;8.15;4.10;;;;;;;26.13;42.04;99970.10;1719184;83;20978;-41
2021/05/14 08:40:54;;;;;;;11.10;3.70;;;;;;;26.21;42.30;99970.75;1719420;83;21002;-42
2021/05/14 08:43:22;;;;;;;13.98;3.65;;;;;;;26.37;41.43;99964.35;1719283;83;20915;-42
2021/05/14 08:45:50;;;;;;;11.03;3.47;;;;;;;26.50;43.00;99968.02;1719503;83;20890;-42
2021/05/14 08:48:16;;;;;;;13.32;3.22;;;;;;;26.79;42.08;99963.60;1719544;83;21695;-42
2021/05/14 08:50:43;;;;;;;7.90;3.20;;;;;;;27.00;40.25;99966.05;1693179;83;20926;-43
2021/05/14 08:53:10;;;;;;;7.10;3.65;;;;;;;26.98;40.85;99961.38;1719336;82;21089;-42
2021/05/14 08:55:37;;;;;;;18.57;3.67;;;;;;;27.01;39.57;99957.60;1719434;83;20946;-42
2021/05/14 08:58:03;;;;;;;8.53;3.15;;;;;;;27.13;40.03;99953.75;1692628;83;20891;-41
2021/05/14 09:00:31;;;;;;;12.10;2.65;;;;;;;27.24;39.30;99946.92;1719350;83;21124;-41
2021/05/14 09:02:57;;;;;;;16.17;3.27;;;;;;;27.33;40.68;99943.86;1719415;82;20895;-42
2021/05/14 09:05:27;;;;;;;8.53;2.58;;;;;;;27.43;38.77;99941.14;1719478;83;20958;-41
2021/05/14 09:07:55;;;;;;;9.25;2.45;;;;;;;27.56;37.82;99942.61;1719289;82;20981;-41
2021/05/14 09:10:25;;;;;;;10.68;2.72;;;;;;;27.62;38.13;99940.66;1719456;83;20946;-41
2021/05/14 09:12:51;;;;;;;6.50;2.70;;;;;;;27.72;37.16;99942.77;1719033;83;21145;-41
2021/05/14 09:15:31;;;;;;;14.70;3.22;;;;;;;27.93;37.09;99940.28;1719276;83;20918;-42
2021/05/14 09:18:14;;;;;;;9.50;2.85;;;;;;;28.18;36.48;99943.16;1719388;82;20899;-41
2021/05/14 09:20:48;;;;;;;10.82;2.80;;;;;;;28.18;34.63;99932.00;1706373;83;20951;-41
2021/05/14 09:23:23;;;;;;;8.70;2.12;;;;;;;28.11;35.56;99935.73;1705846;84;21556;-41
2021/05/14 09:26:10;;;;;;;4.97;2.22;;;;;;;28.09;35.19;99935.06;1706088;83;21054;-42
2021/05/14 09:28:47;;;;;;;12.93;2.80;;;;;;;27.88;35.44;99933.23;1705674;84;21006;-41
2021/05/14 09:31:27;;;;;;;6.87;2.00;;;;;;;27.92;35.43;99937.28;1705838;83;20978;-42
2021/05/14 09:33:59;;;;;;;9.38;2.00;;;;;;;28.07;33.93;99932.23;1705821;84;20963;-41
2021/05/14 09:36:34;;;;;;;7.17;1.60;;;;;;;28.06;32.81;99935.38;1705805;84;21552;-41
2021/05/14 09:39:06;;;;;;;7.72;1.35;;;;;;;28.11;32.46;99927.77;1705821;84;21574;-42
2021/05/14 09:41:38;;;;;;;7.53;1.37;;;;;;;28.23;32.30;99932.36;1705765;83;21017;-42
2021/05/14 09:44:14;;;;;;;10.43;1.25;;;;;;;28.36;31.32;99921.30;1705783;83;21582;-42
2021/05/14 09:46:47;;;;;;;6.90;1.35;;;;;;;28.49;30.47;99918.72;1705732;84;21592;-42
2021/05/14 09:49:17;;;;;;;35.25;2.22;;;;;;;28.49;31.52;99924.04;1705903;84;20978;-42
2021/05/14 09:52:00;;;;;;;12.75;1.57;;;;;;;28.53;30.60;99928.87;1705788;83;21824;-42
2021/05/14 09:54:30;;;;;;;10.20;1.32;;;;;;;28.55;29.83;99928.72;1704345;84;20986;-42
2021/05/14 09:59:50;;;;;;;10.23;1.45;;;;;;;28.11;28.88;99938.41;1705706;83;21492;-42
2021/05/14 10:02:37;;;;;;;19.15;1.77;;;;;;;27.84;29.99;99935.39;1705944;83;21658;-42
2021/05/14 10:05:10;;;;;;;16.77;1.65;;;;;;;27.73;29.77;99936.45;1705793;84;21140;-42
2021/05/14 10:07:37;;;;;;;10.18;1.67;;;;;;;27.67;28.08;99945.05;1705899;82;21081;-42
2021/05/14 10:10:07;;;;;;;19.87;1.52;;;;;;;27.76;28.50;99937.95;1705807;84;20927;-42
2021/05/14 10:12:34;;;;;;;18.37;2.00;;;;;;;27.87;29.03;99943.05;1705822;84;20939;-42
2021/05/14 10:15:02;;;;;;;49.55;2.50;;;;;;;28.16;28.14;99941.11;1705705;84;20860;-42
2021/05/14 10:17:29;;;;;;;16.32;2.40;;;;;;;28.20;27.79;99937.18;1686121;82;21146;-42
2021/05/14 10:19:57;;;;;;;36.63;2.50;;;;;;;28.31;28.42;99932.09;1712497;83;20978;-42
2021/05/14 10:22:28;;;;;;;70.87;4.53;;;;;;;28.45;27.30;99945.31;1719270;83;21475;-42
2021/05/14 10:24:58;;;;;;;80.25;3.50;;;;;;;28.34;27.07;99941.91;1719318;83;21005;-42
2021/05/14 10:27:32;;;;;;;49.08;2.90;;;;;;;28.22;27.40;99944.50;1719323;82;20986;-42
2021/05/14 10:30:00;;;;;;;46.73;3.25;;;;;;;28.20;28.10;99939.84;1718586;82;21703;-42
2021/05/14 10:35:15;;;;;;;70.25;3.95;;;;;;;28.23;28.87;99936.34;1815412;79;22019;-42
2021/05/14 10:37:53;;;;;;;46.77;2.80;;;;;;;28.32;27.36;99931.92;1788619;80;21575;-42
2021/05/14 10:40:34;;;;;;;41.33;2.40;;;;;;;28.42;28.28;99933.14;1788619;80;21857;-41
2021/05/14 10:43:06;;;;;;;72.80;4.22;;;;;;;28.32;26.62;99931.92;1788617;79;20933;-41
2021/05/14 10:45:36;;;;;;;61.92;3.35;;;;;;;28.27;27.63;99935.55;1788444;80;20981;-42
2021/05/14 10:48:04;;;;;;;18.67;2.45;;;;;;;28.31;26.93;99928.92;1788553;80;21372;-42
2021/05/14 10:50:34;;;;;;;40.30;2.20;;;;;;;28.70;27.17;99929.47;1788644;80;20898;-42
2021/05/14 10:53:31;;;;;;;24.95;2.50;;;;;;;29.01;25.95;99923.11;1788565;80;21090;-42
2021/05/14 10:56:13;;;;;;;35.23;2.83;;;;;;;29.08;26.77;99929.95;1786466;80;20977;-42
2021/05/14 10:58:53;;;;;;;19.73;2.42;;;;;;;29.15;25.43;99922.97;1788458;80;22122;-42
2021/05/14 11:01:39;;;;;;;75.28;3.72;;;;;;;29.20;25.74;99922.49;1788681;80;21034;-42
2021/05/14 11:04:18;;;;;;;14.85;2.20;;;;;;;29.33;27.80;99922.87;1788612;80;20966;-42
2021/05/14 11:06:49;;;;;;;19.17;1.92;;;;;;;29.60;26.67;99925.41;1783366;80;21102;-42
2021/05/14 11:09:17;;;;;;;16.17;2.20;;;;;;;29.68;25.75;99918.73;1757271;81;21056;-42
2021/05/14 11:12:05;;;;;;;21.87;2.20;;;;;;;29.31;25.14;99916.02;1757318;81;21004;-41
2021/05/14 11:14:46;;;;;;;62.35;4.30;;;;;;;28.75;27.11;99919.98;1757280;81;20997;-42
2021/05/14 11:17:22;;;;;;;36.10;3.35;;;;;;;28.98;27.19;99916.77;1757509;81;20882;-41
2021/05/14 11:19:52;;;;;;;66.92;3.92;;;;;;;29.30;28.51;99911.69;1757206;81;21557;-42
2021/05/14 11:22:38;;;;;;;62.70;4.10;;;;;;;29.41;27.99;99901.25;1757328;81;20897;-42
2021/05/14 11:25:17;;;;;;;32.42;3.22;;;;;;;29.44;26.69;99907.58;1757420;81;21029;-41
2021/05/14 11:27:45;;;;;;;76.33;4.17;;;;;;;29.39;26.93;99916.03;1757376;81;20950;-41
2021/05/14 11:30:15;;;;;;;45.52;4.00;;;;;;;29.16;27.02;99911.83;1757388;81;21439;-42
2021/05/14 11:32:44;;;;;;;20.82;3.40;;;;;;;28.88;27.56;99906.25;1757215;81;21130;-42
2021/05/14 11:35:18;;;;;;;28.55;3.95;;;;;;;28.51;28.10;99906.91;1746010;81;21013;-42
2021/05/14 11:37:56;;;;;;;29.32;3.60;;;;;;;28.19;28.68;99903.59;1743042;82;20887;-41
2021/05/14 11:40:31;;;;;;;61.42;4.53;;;;;;;28.02;29.36;99890.62;1744100;82;20934;-42